This is the latest recevied weather packets stored in our database for station/object K7MT-WX. If no packets are shown the sender has not sent any weather packets the latest 10 day(s).
| Time | Temp. | Humidity | Pressure | Rain* | Wind** | Luminosity | Snow |
|---|---|---|---|---|---|---|---|
| 1777526229 | 3.89° C | 65% | 1023 hPa | 0 mm | - | - | - |
| 1777525329 | 5° C | 62% | 1023.1 hPa | 0 mm | - | - | - |
| 1777524429 | 5.56° C | 60% | 1023.1 hPa | 0 mm | - | - | - |
| 1777523529 | 6.11° C | 58% | 1023 hPa | 0 mm | - | - | - |
| 1777522629 | 6.67° C | 57% | 1022.9 hPa | 0 mm | - | - | - |
| 1777521729 | 6.67° C | 57% | 1022.9 hPa | 0 mm | - | - | - |
| 1777520829 | 6.67° C | 56% | 1022.8 hPa | 0 mm | - | - | - |
| 1777519929 | 7.78° C | 52% | 1022.7 hPa | 0 mm | - | - | - |
| 1777519029 | 7.78° C | 50% | 1022.5 hPa | 0 mm | - | - | - |
| 1777518129 | 7.78° C | 53% | 1022.4 hPa | 0 mm | - | - | - |
| 1777517229 | 9.44° C | 50% | 1022.2 hPa | 0 mm | - | - | - |
| 1777516329 | 10° C | 50% | 1022 hPa | 0 mm | - | - | - |
| 1777515429 | 11.11° C | 46% | 1021.9 hPa | 0 mm | - | - | - |
| 1777514529 | 11.67° C | 43% | 1021.7 hPa | 0 mm | - | - | - |
| 1777513629 | 12.78° C | 36% | 1021.6 hPa | 0 mm | - | - | - |
| 1777512729 | 13.33° C | 35% | 1021.6 hPa | 0 mm | - | - | - |
| 1777511829 | 13.33° C | 32% | 1021.5 hPa | 0 mm | - | - | - |
| 1777510929 | 13.89° C | 32% | 1021.4 hPa | 0 mm | - | - | - |
| 1777510029 | 13.89° C | 35% | 1021.3 hPa | 0 mm | - | - | - |
| 1777509129 | 12.78° C | 37% | 1021.2 hPa | 0 mm | - | - | - |
| 1777508199 | 13.33° C | 37% | 1021.1 hPa | 0 mm | - | - | - |
| 1777507299 | 13.33° C | 36% | 1021.1 hPa | 0 mm | - | - | - |
| 1777506369 | 14.44° C | 33% | 1021 hPa | 0 mm | - | - | - |
| 1777505469 | 14.44° C | 29% | 1020.9 hPa | 0 mm | - | - | - |
| 1777504539 | 13.89° C | 31% | 1020.9 hPa | 0 mm | - | - | - |
* Rain latest hour (hover to see other rain measurements)
** Current wind speed in m/s (hover to see current wind gust speed)